Pagina principale
METAR-TAF:

METAR-TAF

Aeroporti :

Passo della Cisa, Italia

latitudine: 44-26N, longitudine: 009-56E, altezza: 1039 m

Osservazione

Il bollettino è stato emesso 43 minuti fa, alle 12:55 UTC
Vento 10 kt da nord
Temperature 11°C
Umidità 62%
Pressione 1012 hPa
Visibilità 10 km o più
Nubi sparse ad un'altezza di 1500 ft
Nubi sparse ad un'altezza di 3000 ft

METAR: LIMT 191255Z 36010KT 9999 SCT015 SCT030 11/04 Q1012 RMK BKN MON LIB VAL NIL VIS MIN 9999

Ora: 15:38 (13:38 UTC)


TAF: mancante

Osservazioni e previsioni meteorologiche di più di 4000 aeroporti (messaggi METAR e TAF).

Le stazioni disponibili sono rappresentate dai dischi gialli e rossi sulla carta.

Puntare il mouse per vedere il nome della stazione.

Clicca sopra per visualizzare le osservazioni e previsioni meteorologiche.

Per cambiare la mappa : fare clic sui pulsanti verdi con una croce nera per ingrandire, il pulsante verde con un trattino per diminuire, o sulla freccia verde per le mappe adiacenti.


METAR-TAF: